Data for 12/22/2017

Time Sea-Level Adjusted Pressure Absolute Pressure Temperature Relative Humidity Dew Point   
(mb) (inHg) (mb) (inHg) (C) (F) (%) (C) (F)
00:05 1017 30.03 846 24.98 -6.5 20.2 80 -9.4 15.1
00:10 1017 30.03 846 24.98 -6.7 20 82 -9.3 15.3
00:15 1017 30.03 846 24.98 -6.8 19.8 83 -9.2 15.4
00:20 1017 30.03 846 24.98 -6.9 19.6 85 -9 15.8
00:25 1017 30.03 846 24.98 -6.9 19.6 85 -9 15.9
00:30 1017 30.03 846 24.98 -7 19.4 85 -9.1 15.7
00:35 1017 30.03 846 24.98 -7.2 19.1 86 -9.1 15.7
00:40 1017 30.03 846 24.98 -7.2 19.1 87 -9 15.8
00:45 1017 30.03 846 24.98 -7.2 19.1 87 -9 15.8
00:50 1017 30.03 846 24.98 -7.3 19 87 -9 15.8
00:55 1017 30.03 846 24.98 -7.3 18.8 87 -9.1 15.7
01:00 1017 30.03 846 24.98 -7.3 18.8 88 -9 15.9
01:05 1017 30.03 846 24.98 -7.3 18.9 88 -8.9 16
01:10 1017 30.03 846 24.98 -7.2 19 89 -8.8 16.2
01:15 1017 30.03 846 24.98 -7.1 19.3 88 -8.7 16.4
01:20 1017 30.03 846 24.98 -6.9 19.6 88 -8.5 16.8
01:25 1017 30.03 846 24.98 -6.7 19.9 87 -8.5 16.8
01:30 1017 30.03 846 24.98 -6.7 19.9 87 -8.5 16.8
01:35 1017 30.03 846 24.98 -6.8 19.7 88 -8.4 16.8
01:40 1017 30.03 846 24.98 -6.8 19.8 88 -8.4 16.8
01:45 1017 30.03 846 24.98 -6.8 19.8 88 -8.4 16.9
01:50 1017 30.03 846 24.98 -6.8 19.7 89 -8.4 16.9
01:55 1017 30.03 846 24.98 -6.8 19.8 89 -8.3 17
02:00 1017 30.03 846 24.98 -6.7 19.9 89 -8.2 17.2
02:05 1017 30.03 846 24.98 -6.6 20.1 89 -8.1 17.3
02:10 1017 30.03 846 24.98 -6.6 20.2 89 -8.1 17.4
02:15 1017 30.03 846 24.98 -6.5 20.3 89 -8.1 17.5
02:20 1017 30.03 846 24.98 -6.4 20.4 89 -8 17.5
02:25 1017 30.03 846 24.98 -6.5 20.3 89 -8.1 17.5
02:30 1017 30.03 846 24.98 -6.5 20.4 89 -8.1 17.5
02:35 1017 30.03 846 24.98 -6.4 20.5 88 -8 17.6
02:40 1017 30.03 846 24.98 -6.4 20.4 88 -8.1 17.5
02:45 1017 30.03 846 24.98 -6.5 20.4 89 -8 17.5
02:50 1017 30.03 846 24.98 -6.4 20.4 89 -8 17.6
02:55 1017 30.03 846 24.98 -6.5 20.4 89 -8 17.7
03:00 1017 30.03 846 24.98 -6.4 20.5 89 -7.9 17.8
03:05 1017 30.03 846 24.98 -6.4 20.5 89 -7.9 17.8
03:10 1017 30.03 846 24.98 -6.4 20.5 89 -8 17.7
03:15 1017 30.03 846 24.98 -6.4 20.5 89 -7.9 17.7
03:20 1017 30.03 846 24.98 -6.4 20.5 89 -7.9 17.7
03:25 1017 30.03 846 24.98 -6.4 20.6 89 -7.9 17.8
03:30 1017 30.03 846 24.98 -6.4 20.6 89 -7.9 17.8
03:35 1017 30.03 846 24.98 -6.3 20.7 89 -7.8 17.9
03:40 1017 30.03 846 24.98 -6.3 20.7 89 -7.9 17.8
03:45 1017 30.03 846 24.98 -6.3 20.6 89 -7.9 17.8
03:50 1017 30.03 846 24.98 -6.3 20.6 89 -7.9 17.7
03:55 1017 30.03 846 24.98 -6.4 20.5 89 -7.9 17.7
04:00 1017 30.03 846 24.98 -6.4 20.5 89 -8 17.6
04:05 1017 30.03 846 24.98 -6.5 20.4 89 -8 17.5
04:10 1017 30.03 846 24.98 -6.6 20.1 88 -8.4 16.9
04:15 1017 30.03 846 24.98 -7 19.3 88 -8.7 16.4
04:20 1017 30.03 846 24.98 -7.3 18.9 89 -8.8 16.1
04:25 1017 30.03 846 24.98 -7.3 18.9 89 -8.8 16.2
04:30 1017 30.03 846 24.98 -7.3 18.9 89 -8.7 16.3
04:35 1017 30.03 846 24.98 -7.2 19.1 89 -8.7 16.4
04:40 1017 30.03 846 24.98 -7.1 19.2 89 -8.6 16.5
04:45 1017 30.03 846 24.98 -7.2 19 89 -8.8 16.2
04:50 1017 30.03 846 24.98 -7.2 19 89 -8.7 16.3
04:55 1017 30.03 846 24.98 -7.2 19 89 -8.7 16.4
05:00 1017 30.03 846 24.98 -7.1 19.3 90 -8.5 16.7
05:05 1017 30.03 846 24.98 -7 19.4 90 -8.4 16.8
05:10 1017 30.03 846 24.98 -6.9 19.5 89 -8.4 16.8
05:15 1017 30.03 846 24.98 -6.9 19.5 89 -8.5 16.8
05:20 1017 30.03 846 24.98 -7 19.4 89 -8.5 16.7
05:25 1017 30.03 846 24.98 -7.1 19.2 88 -8.7 16.3
05:30 1017 30.03 846 24.98 -7.3 18.9 89 -8.8 16.2
05:35 1017 30.03 846 24.98 -7.2 19.1 89 -8.7 16.4
05:40 1017 30.03 846 24.98 -7.1 19.2 89 -8.6 16.4
05:45 1017 30.03 847 25.01 -7.1 19.3 89 -8.6 16.4
05:50 1017 30.03 847 25.01 -7.1 19.1 88 -8.8 16.2
05:55 1017 30.03 847 25.01 -7.3 18.9 87 -9 15.7
06:00 1018 30.06 847 25.01 -7.5 18.5 88 -9.1 15.5
06:05 1017 30.03 847 25.01 -7.5 18.5 88 -9.2 15.4
06:10 1017 30.03 847 25.01 -7.7 18.1 89 -9.3 15.3
06:15 1017 30.03 847 25.01 -7.7 18.1 89 -9.3 15.3
06:20 1017 30.03 847 25.01 -7.8 18 89 -9.2 15.4
06:25 1017 30.03 847 25.01 -7.6 18.3 89 -9.1 15.6
06:30 1017 30.03 847 25.01 -7.5 18.5 89 -9 15.7
06:35 1018 30.06 847 25.01 -7.4 18.6 89 -9 15.8
06:40 1018 30.06 847 25.01 -7.4 18.7 88 -9.1 15.6
06:45 1018 30.06 847 25.01 -7.5 18.5 87 -9.3 15.3
06:50 1018 30.06 847 25.01 -7.6 18.3 87 -9.4 15
06:55 1018 30.06 847 25.01 -7.7 18.2 87 -9.4 15
07:00 1018 30.06 847 25.01 -7.7 18.1 87 -9.5 14.9
07:05 1018 30.06 847 25.01 -7.8 18.1 86 -9.7 14.6
07:10 1018 30.06 847 25.01 -7.9 17.8 86 -9.8 14.3
07:15 1018 30.06 847 25.01 -8.1 17.4 86 -10 14
07:20 1018 30.06 847 25.01 -8.2 17.3 87 -10 14.1
07:25 1018 30.06 847 25.01 -8.1 17.5 87 -9.8 14.3
07:30 1018 30.06 847 25.01 -8 17.6 87 -9.8 14.3
07:35 1018 30.06 847 25.01 -8 17.6 87 -9.8 14.3
07:40 1018 30.06 847 25.01 -8 17.7 86 -9.9 14.3
07:45 1018 30.06 847 25.01 -8 17.7 86 -9.9 14.2
07:50 1018 30.06 847 25.01 -8 17.7 86 -10 14.1
07:55 1018 30.06 848 25.04 -8.1 17.4 85 -10.2 13.7
08:00 1018 30.06 848 25.04 -8.3 17.1 85 -10.3 13.4
08:05 1018 30.06 848 25.04 -8.4 16.8 86 -10.4 13.3
08:10 1018 30.06 848 25.04 -8.5 16.7 86 -10.4 13.3
08:15 1018 30.06 848 25.04 -8.6 16.5 87 -10.4 13.3
08:20 1018 30.06 848 25.04 -8.5 16.7 87 -10.3 13.5
08:25 1018 30.06 848 25.04 -8.4 16.8 86 -10.3 13.4
08:30 1019 30.09 848 25.04 -8.4 16.9 86 -10.3 13.4
08:35 1019 30.09 848 25.04 -8.2 17.2 85 -10.2 13.6
08:40 1019 30.09 848 25.04 -8.1 17.4 86 -10.1 13.8
08:45 1019 30.09 848 25.04 -8.1 17.5 86 -10.1 13.9
08:50 1019 30.09 848 25.04 -8.2 17.3 85 -10.2 13.6
08:55 1019 30.09 848 25.04 -8.2 17.2 86 -10.2 13.6
09:00 1019 30.09 848 25.04 -8.1 17.4 84 -10.3 13.4
09:05 1019 30.09 848 25.04 -8.2 17.2 85 -10.3 13.5
09:10 1019 30.09 848 25.04 -8.2 17.2 86 -10.2 13.6
09:15 1019 30.09 848 25.04 -8.3 17.1 86 -10.2 13.7
09:20 1019 30.09 848 25.04 -8.3 17 86 -10.3 13.4
09:25 1019 30.09 848 25.04 -8.3 17.1 81 -11 12.2
09:30 1019 30.09 848 25.04 -8.6 16.6 81 -11.2 11.8
09:35 1019 30.09 848 25.04 -8.8 16.2 82 -11.4 11.6
09:40 1019 30.09 848 25.04 -9 15.8 83 -11.4 11.5
09:45 1019 30.09 848 25.04 -9.2 15.5 83 -11.6 11.1
09:50 1019 30.09 848 25.04 -9.1 15.6 81 -11.8 10.8
09:55 1019 30.09 848 25.04 -9.1 15.6 81 -11.7 10.9
10:00 1019 30.09 848 25.04 -9.1 15.6 79 -12.1 10.2
10:05 1019 30.09 848 25.04 -9.2 15.5 80 -12.1 10.3
10:10 1019 30.09 848 25.04 -9.2 15.5 78 -12.3 9.9
10:15 1019 30.09 848 25.04 -9.2 15.4 78 -12.3 9.8
10:20 1019 30.09 848 25.04 -9.3 15.3 79 -12.3 9.9
10:25 1018 30.06 848 25.04 -9.2 15.4 79 -12.3 9.9
10:30 1018 30.06 848 25.04 -9.3 15.2 80 -12.2 10.1
10:35 1018 30.06 848 25.04 -9.3 15.2 80 -12.1 10.2
10:40 1018 30.06 848 25.04 -9.2 15.5 78 -12.3 9.8
10:45 1018 30.06 848 25.04 -9.2 15.4 77 -12.5 9.4
10:50 1018 30.06 848 25.04 -9.2 15.4 77 -12.5 9.5
10:55 1018 30.06 847 25.01 -9.2 15.4 76 -12.7 9.2
11:00 1018 30.06 847 25.01 -9.3 15.4 76 -12.7 9.1
11:05 1018 30.06 847 25.01 -9.4 15.1 75 -13 8.6
11:10 1018 30.06 847 25.01 -9.6 14.8 74 -13.3 8.1
11:15 1018 30.06 847 25.01 -9.6 14.7 75 -13.3 8.1
11:20 1018 30.06 847 25.01 -9.6 14.7 75 -13.2 8.2
11:25 1018 30.06 847 25.01 -9.6 14.8 75 -13.3 8.1
11:30 1018 30.06 847 25.01 -9.5 14.9 75 -13.2 8.3
11:35 1018 30.06 847 25.01 -9.6 14.8 76 -13 8.6
11:40 1018 30.06 847 25.01 -9.6 14.6 77 -12.9 8.7
11:45 1018 30.06 847 25.01 -9.7 14.6 77 -13 8.6
11:50 1018 30.06 847 25.01 -9.7 14.5 78 -12.9 8.7
11:55 1018 30.06 847 25.01 -9.6 14.7 77 -12.9 8.7
12:00 1018 30.06 847 25.01 -9.7 14.6 76 -13.1 8.5
12:05 1017 30.03 847 25.01 -9.7 14.6 75 -13.4 7.9
12:10 1017 30.03 847 25.01 -9.5 14.9 75 -13.1 8.4
12:15 1017 30.03 846 24.98 -9.5 14.9 74 -13.3 8.1
12:20 1017 30.03 847 25.01 -9.3 15.2 73 -13.3 8.1
12:25 1017 30.03 847 25.01 -9.3 15.2 73 -13.3 8.1
12:30 1017 30.03 847 25.01 -9.4 15 73 -13.5 7.8
12:35 1017 30.03 847 25.01 -9.3 15.3 72 -13.5 7.7
12:40 1017 30.03 847 25.01 -9.4 15.2 71 -13.8 7.2
12:45 1017 30.03 847 25.01 -9.5 14.9 70 -14 6.7
12:50 1017 30.03 847 25.01 -9.5 14.9 70 -14.1 6.7
12:55 1018 30.06 847 25.01 -9.4 15 71 -13.8 7.2
13:00 1018 30.06 847 25.01 -9.3 15.3 70 -13.8 7.2
13:05 1018 30.06 847 25.01 -9.3 15.2 70 -13.9 7
13:10 1018 30.06 847 25.01 -9.6 14.8 71 -13.8 7.1
13:15 1017 30.03 847 25.01 -9.6 14.8 72 -13.7 7.3
13:20 1017 30.03 847 25.01 -9.7 14.5 72 -13.8 7.1
13:25 1017 30.03 847 25.01 -9.8 14.4 74 -13.5 7.7
13:30 1017 30.03 846 24.98 -9.8 14.3 76 -13.3 8
13:35 1017 30.03 846 24.98 -10 14 78 -13.2 8.2
13:40 1017 30.03 846 24.98 -10.1 13.9 78 -13.2 8.3
13:45 1017 30.03 846 24.98 -10.1 13.8 78 -13.2 8.3
13:50 1017 30.03 846 24.98 -10.2 13.7 78 -13.3 8.1
13:55 1017 30.03 846 24.98 -10.2 13.7 77 -13.5 7.7
14:00 1017 30.03 846 24.98 -10.1 13.9 77 -13.4 7.8
14:05 1017 30.03 846 24.98 -10.1 13.9 76 -13.5 7.6
14:10 1017 30.03 846 24.98 -10.1 13.7 76 -13.6 7.5
14:15 1017 30.03 846 24.98 -10.1 13.8 78 -13.2 8.2
14:20 1017 30.03 847 25.01 -10.1 13.8 77 -13.4 8
14:25 1017 30.03 847 25.01 -10.3 13.5 79 -13.3 8.1
14:30 1018 30.06 847 25.01 -10.2 13.6 77 -13.4 7.8
14:35 1018 30.06 847 25.01 -10.4 13.3 79 -13.4 7.8
14:40 1018 30.06 847 25.01 -10.5 13.1 79 -13.5 7.7
14:45 1018 30.06 847 25.01 -10.6 13 79 -13.5 7.8
14:50 1018 30.06 847 25.01 -10.6 13 80 -13.4 7.9
14:55 1018 30.06 847 25.01 -10.7 12.7 82 -13.2 8.3
15:00 1018 30.06 847 25.01 -10.8 12.6 82 -13.2 8.2
15:05 1018 30.06 847 25.01 -10.9 12.3 83 -13.3 8.1
15:10 1018 30.06 847 25.01 -11 12.2 83 -13.3 8.1
15:15 1018 30.06 847 25.01 -11 12.1 83 -13.4 7.8
15:20 1018 30.06 847 25.01 -11.2 11.9 83 -13.5 7.7
15:25 1018 30.06 847 25.01 -11.2 11.8 83 -13.5 7.6
15:30 1018 30.06 847 25.01 -11.2 11.8 83 -13.6 7.5
15:35 1018 30.06 847 25.01 -11.3 11.7 83 -13.7 7.4
15:40 1018 30.06 847 25.01 -11.3 11.7 82 -13.8 7.1
15:45 1018 30.06 847 25.01 -11.3 11.6 81 -14 6.9
15:50 1018 30.06 847 25.01 -11.3 11.7 79 -14.3 6.2
15:55 1018 30.06 847 25.01 -11.3 11.7 77 -14.5 5.9
16:00 1018 30.06 847 25.01 -11.3 11.7 77 -14.6 5.7
16:05 1018 30.06 847 25.01 -11.2 11.8 76 -14.6 5.7
16:10 1018 30.06 847 25.01 -11.3 11.7 75 -14.8 5.3
16:15 1018 30.06 847 25.01 -11.3 11.6 75 -15 5.1
16:20 1018 30.06 847 25.01 -11.3 11.7 74 -15 5
16:25 1018 30.06 847 25.01 -11.3 11.7 74 -15.1 4.8
16:30 1018 30.06 847 25.01 -11.3 11.6 74 -15.1 4.9
16:35 1018 30.06 847 25.01 -11.4 11.5 74 -15.1 4.9
16:40 1018 30.06 847 25.01 -11.4 11.5 75 -15.1 4.9
16:45 1018 30.06 847 25.01 -11.4 11.4 75 -15.1 4.9
16:50 1018 30.06 847 25.01 -11.5 11.4 75 -15 4.9
16:55 1018 30.06 848 25.04 -11.5 11.3 76 -14.9 5.1
17:00 1018 30.06 847 25.01 -11.6 11.2 76 -15 4.9
17:05 1018 30.06 847 25.01 -11.6 11.1 77 -14.8 5.4
17:10 1018 30.06 847 25.01 -11.7 11 78 -14.8 5.4
17:15 1018 30.06 848 25.04 -11.7 11 78 -14.7 5.5
17:20 1018 30.06 848 25.04 -11.7 11 78 -14.8 5.3
17:25 1019 30.09 848 25.04 -11.7 11 78 -14.8 5.3
17:30 1019 30.09 848 25.04 -11.7 10.9 79 -14.7 5.5
17:35 1019 30.09 848 25.04 -11.7 10.9 78 -14.8 5.3
17:40 1019 30.09 848 25.04 -11.7 10.9 77 -15.1 4.9
17:45 1019 30.09 848 25.04 -11.8 10.8 76 -15.2 4.6
17:50 1019 30.09 848 25.04 -11.8 10.8 74 -15.5 4.1
17:55 1019 30.09 848 25.04 -11.8 10.7 74 -15.5 4.1
18:00 1019 30.09 848 25.04 -11.9 10.7 74 -15.5 4
18:05 1019 30.09 848 25.04 -11.9 10.5 75 -15.5 4.1
18:10 1019 30.09 848 25.04 -12 10.5 76 -15.4 4.3
18:15 1019 30.09 848 25.04 -12 10.3 76 -15.4 4.3
18:20 1019 30.09 848 25.04 -12.1 10.2 76 -15.5 4.1
18:25 1018 30.06 848 25.04 -12.2 10.1 77 -15.4 4.3
18:30 1019 30.09 848 25.04 -12.2 10.1 79 -15.1 4.8
18:35 1019 30.09 848 25.04 -12.2 10 78 -15.2 4.6
18:40 1019 30.09 848 25.04 -12.3 9.8 78 -15.4 4.2
18:45 1019 30.09 848 25.04 -12.4 9.8 78 -15.5 4.2
18:50 1019 30.09 848 25.04 -12.3 9.8 77 -15.6 3.9
18:55 1019 30.09 848 25.04 -12.4 9.7 75 -15.9 3.3
19:00 1019 30.09 848 25.04 -12.5 9.6 75 -16 3.1
19:05 1018 30.06 848 25.04 -12.5 9.5 75 -16.1 3.1
19:10 1018 30.06 848 25.04 -12.5 9.4 77 -15.9 3.5
19:15 1018 30.06 847 25.01 -12.5 9.5 75 -16.1 3.1
19:20 1018 30.06 847 25.01 -12.6 9.4 75 -16.1 3.1
19:25 1018 30.06 847 25.01 -12.6 9.3 76 -16.1 3
19:30 1018 30.06 847 25.01 -12.7 9.2 75 -16.3 2.7
19:35 1018 30.06 847 25.01 -12.7 9.1 75 -16.3 2.6
19:40 1018 30.06 847 25.01 -12.7 9.1 73 -16.6 2.1
19:45 1018 30.06 848 25.04 -12.7 9.1 73 -16.6 2.1
19:50 1018 30.06 848 25.04 -12.8 8.9 73 -16.8 1.8
19:55 1018 30.06 848 25.04 -12.8 8.9 73 -16.7 1.9
20:00 1018 30.06 848 25.04 -12.9 8.9 72 -16.8 1.7
20:05 1019 30.09 848 25.04 -12.9 8.9 73 -16.8 1.8
20:10 1018 30.06 848 25.04 -12.8 8.9 73 -16.8 1.8
20:15 1018 30.06 848 25.04 -12.9 8.8 73 -16.7 1.9
20:20 1018 30.06 848 25.04 -12.9 8.8 75 -16.5 2.3
20:25 1018 30.06 848 25.04 -13 8.6 76 -16.4 2.5
20:30 1019 30.09 848 25.04 -13.1 8.5 77 -16.3 2.7
20:35 1019 30.09 848 25.04 -13.1 8.5 78 -16.2 2.9
20:40 1019 30.09 848 25.04 -13 8.7 77 -16.2 2.8
20:45 1019 30.09 848 25.04 -13.1 8.5 78 -16.1 3
20:50 1019 30.09 848 25.04 -13.1 8.4 78 -16.2 2.9
20:55 1019 30.09 848 25.04 -13.1 8.4 77 -16.3 2.7
21:00 1019 30.09 848 25.04 -13.2 8.3 77 -16.4 2.6
21:05 1019 30.09 848 25.04 -13.2 8.2 78 -16.2 2.8
21:10 1019 30.09 848 25.04 -13.2 8.2 78 -16.3 2.7
21:15 1019 30.09 848 25.04 -13.3 8.1 79 -16.3 2.7
21:20 1019 30.09 848 25.04 -13.3 8 79 -16.2 2.8
21:25 1019 30.09 848 25.04 -13.4 8 79 -16.2 2.9
21:30 1019 30.09 848 25.04 -13.4 7.9 80 -16.1 2.9
21:35 1019 30.09 848 25.04 -13.4 7.8 81 -16.1 3.1
21:40 1019 30.09 848 25.04 -13.5 7.7 81 -16.1 3
21:45 1019 30.09 848 25.04 -13.5 7.6 81 -16.1 3
21:50 1019 30.09 848 25.04 -13.6 7.5 81 -16.1 3
21:55 1019 30.09 848 25.04 -13.6 7.5 81 -16.2 2.8
22:00 1019 30.09 848 25.04 -13.6 7.4 81 -16.2 2.9
22:05 1019 30.09 848 25.04 -13.6 7.4 81 -16.2 2.8
22:10 1019 30.09 848 25.04 -13.7 7.3 81 -16.3 2.6
22:15 1019 30.09 848 25.04 -13.7 7.3 80 -16.5 2.4
22:20 1019 30.09 848 25.04 -13.7 7.3 80 -16.5 2.3
22:25 1019 30.09 848 25.04 -13.7 7.3 80 -16.5 2.2
22:30 1019 30.09 848 25.04 -13.8 7.2 79 -16.7 1.9
22:35 1019 30.09 848 25.04 -13.7 7.3 78 -16.7 1.9
22:40 1019 30.09 848 25.04 -13.7 7.3 77 -16.9 1.5
22:45 1019 30.09 848 25.04 -13.7 7.3 76 -17 1.3
22:50 1019 30.09 848 25.04 -13.7 7.4 75 -17.2 1.1
22:55 1019 30.09 848 25.04 -13.6 7.4 74 -17.3 0.8
23:00 1019 30.09 848 25.04 -13.7 7.4 75 -17.3 0.9
23:05 1019 30.09 848 25.04 -13.7 7.4 74 -17.4 0.7
23:10 1019 30.09 848 25.04 -13.8 7.3 75 -17.2 1
23:15 1019 30.09 848 25.04 -13.8 7.2 77 -17 1.4
23:20 1019 30.09 848 25.04 -13.9 7.1 78 -16.9 1.6
23:25 1019 30.09 848 25.04 -13.9 6.9 79 -16.8 1.7
23:30 1019 30.09 848 25.04 -14 6.9 80 -16.7 2
23:35 1019 30.09 848 25.04 -14 6.9 81 -16.6 2.1
23:40 1019 30.09 848 25.04 -14 6.8 81 -16.6 2.2
23:45 1019 30.09 848 25.04 -14.1 6.7 82 -16.5 2.2
23:50 1019 30.09 848 25.04 -14.1 6.6 82 -16.6 2.1
23:55 1019 30.09 848 25.04 -14.1 6.6 81 -16.6 2
24:00 1019 30.09 848 25.04 -14.1 6.6 81 -16.8 1.8